createdAt,value
2022-09-22T00:00:42.607Z,5.55
2022-09-22T00:02:48.211Z,4.07
2022-09-22T00:04:52.398Z,3.90
2022-09-22T00:06:57.554Z,5.63
2022-09-22T00:09:03.091Z,4.93
2022-09-22T00:11:13.859Z,6.20
2022-09-22T00:13:18.039Z,6.43
2022-09-22T00:15:22.935Z,6.50
2022-09-22T00:17:27.079Z,4.97
2022-09-22T00:19:35.026Z,5.43
2022-09-22T00:21:39.249Z,6.75
2022-09-22T00:23:44.216Z,8.30
2022-09-22T00:25:48.410Z,5.68
2022-09-22T00:27:55.192Z,6.15
2022-09-22T00:29:59.461Z,6.10
2022-09-22T00:32:07.321Z,6.85
2022-09-22T00:34:16.737Z,6.43
2022-09-22T00:36:25.687Z,5.50
2022-09-22T00:38:30.654Z,6.38
2022-09-22T00:40:35.323Z,4.15
2022-09-22T00:42:39.607Z,5.80
2022-09-22T00:44:44.768Z,4.43
2022-09-22T00:46:52.603Z,4.85
2022-09-22T00:49:00.651Z,7.22
2022-09-22T00:51:08.842Z,5.30
2022-09-22T00:53:16.758Z,4.63
2022-09-22T00:55:24.263Z,5.00
2022-09-22T00:57:32.627Z,4.47
2022-09-22T00:59:37.819Z,5.10
2022-09-22T01:01:42.162Z,6.00
2022-09-22T01:03:46.487Z,4.43
2022-09-22T01:05:54.051Z,4.90
2022-09-22T01:07:58.468Z,7.82
2022-09-22T01:10:04.227Z,6.50
2022-09-22T01:12:09.638Z,6.85
2022-09-22T01:14:24.949Z,5.43
2022-09-22T01:16:43.748Z,4.88
2022-09-22T01:18:58.913Z,5.65
2022-09-22T01:21:21.266Z,5.78
2022-09-22T01:23:55.434Z,6.30
2022-09-22T01:26:21.134Z,4.95
2022-09-22T01:28:54.130Z,6.32
2022-09-22T01:31:04.634Z,7.45
2022-09-22T01:33:24.890Z,5.65
2022-09-22T01:35:33.425Z,4.97
2022-09-22T01:37:45.500Z,6.15
2022-09-22T01:39:54.236Z,5.60
2022-09-22T01:42:03.154Z,6.50
2022-09-22T01:44:14.237Z,6.55
2022-09-22T01:46:28.305Z,5.50
2022-09-22T01:48:35.223Z,5.47
2022-09-22T01:50:43.364Z,6.15
2022-09-22T01:52:49.398Z,8.85
2022-09-22T01:54:58.077Z,5.57
2022-09-22T01:57:14.385Z,7.78
2022-09-22T01:59:21.553Z,5.95
2022-09-22T02:01:30.878Z,4.75
2022-09-22T02:03:40.627Z,3.47
2022-09-22T02:05:49.574Z,6.63
2022-09-22T02:07:57.532Z,4.82
2022-09-22T02:10:06.763Z,7.45
2022-09-22T02:12:11.018Z,6.63
2022-09-22T02:14:15.546Z,5.50
2022-09-22T02:16:22.988Z,3.97
2022-09-22T02:18:33.257Z,7.65
2022-09-22T02:20:37.740Z,6.28
2022-09-22T02:22:41.936Z,11.63
2022-09-22T02:24:47.280Z,6.00
2022-09-22T02:26:51.995Z,5.03
2022-09-22T02:29:01.061Z,5.13
2022-09-22T02:31:22.255Z,7.82
2022-09-22T02:33:29.541Z,7.38
2022-09-22T02:35:38.744Z,4.50
2022-09-22T02:37:50.336Z,4.90
2022-09-22T02:40:04.848Z,4.22
2022-09-22T02:42:26.150Z,5.10
2022-09-22T02:44:35.486Z,3.40
2022-09-22T02:46:43.943Z,3.83
2022-09-22T02:48:52.750Z,4.35
2022-09-22T02:50:57.005Z,5.10
2022-09-22T02:53:05.186Z,5.07
2022-09-22T02:55:15.128Z,5.57
2022-09-22T02:57:19.323Z,8.38
2022-09-22T02:59:23.391Z,6.10
2022-09-22T03:01:27.953Z,8.20
2022-09-22T03:03:32.401Z,6.35
2022-09-22T03:05:38.038Z,5.88
2022-09-22T03:07:42.120Z,5.82
2022-09-22T03:09:46.183Z,5.38
2022-09-22T03:11:50.400Z,5.57
2022-09-22T03:13:54.835Z,4.07
2022-09-22T03:15:59.083Z,4.63
2022-09-22T03:18:03.238Z,6.90
2022-09-22T03:20:09.190Z,6.03
2022-09-22T03:22:14.731Z,5.80
2022-09-22T03:24:18.895Z,6.30
2022-09-22T03:26:23.050Z,6.28
2022-09-22T03:28:27.265Z,7.22
2022-09-22T03:30:31.746Z,9.40
2022-09-22T03:32:36.606Z,9.07
2022-09-22T03:34:40.854Z,7.65
2022-09-22T03:36:44.971Z,9.13
2022-09-22T03:38:52.107Z,7.13
2022-09-22T03:40:58.851Z,6.68
2022-09-22T03:43:03.227Z,8.95
2022-09-22T03:45:08.723Z,8.77
2022-09-22T03:47:13.234Z,6.65
2022-09-22T03:49:17.444Z,8.23
2022-09-22T03:51:21.789Z,6.90
2022-09-22T03:53:26.559Z,7.45
2022-09-22T03:55:32.471Z,8.95
2022-09-22T03:57:36.881Z,7.13
2022-09-22T03:59:41.538Z,7.68
2022-09-22T04:01:46.076Z,8.30
2022-09-22T04:03:50.659Z,8.55
2022-09-22T04:05:55.272Z,7.60
2022-09-22T04:07:59.573Z,8.77
2022-09-22T04:10:05.013Z,10.63
2022-09-22T04:12:11.609Z,13.45
2022-09-22T04:14:16.098Z,11.43
2022-09-22T04:16:20.295Z,13.38
2022-09-22T04:18:24.845Z,7.00
2022-09-22T04:20:30.379Z,10.68
2022-09-22T04:22:35.013Z,10.50
2022-09-22T04:24:39.289Z,11.30
2022-09-22T04:27:01.885Z,11.88
2022-09-22T04:29:09.241Z,9.30
2022-09-22T04:31:13.543Z,12.52
2022-09-22T04:33:18.124Z,8.38
2022-09-22T04:35:22.331Z,14.73
2022-09-22T04:37:26.497Z,12.15
2022-09-22T04:39:30.921Z,12.32
2022-09-22T04:41:35.123Z,8.98
2022-09-22T04:43:39.422Z,8.98
2022-09-22T04:45:47.275Z,11.35
2022-09-22T04:47:53.117Z,14.70
2022-09-22T04:49:57.565Z,12.98
2022-09-22T04:52:02.089Z,14.82
2022-09-22T04:54:06.513Z,10.50
2022-09-22T04:56:11.314Z,12.75
2022-09-22T04:58:15.613Z,9.20
2022-09-22T05:00:21.628Z,10.13
2022-09-22T05:02:27.557Z,9.80
2022-09-22T05:04:31.964Z,10.25
2022-09-22T05:06:36.496Z,13.80
2022-09-22T05:08:40.825Z,9.63
2022-09-22T05:10:45.486Z,8.80
2022-09-22T05:12:49.748Z,12.45
2022-09-22T05:14:54.158Z,10.50
2022-09-22T05:17:01.356Z,11.75
2022-09-22T05:19:07.079Z,12.00
2022-09-22T05:21:11.448Z,12.20
2022-09-22T05:23:15.888Z,12.50
2022-09-22T05:25:20.815Z,10.95
2022-09-22T05:27:25.449Z,16.08
2022-09-22T05:29:29.901Z,7.28
2022-09-22T05:31:34.244Z,9.40
2022-09-22T05:33:38.903Z,9.85
2022-09-22T05:35:44.472Z,10.02
2022-09-22T05:37:49.799Z,8.45
2022-09-22T05:39:53.997Z,11.23
2022-09-22T05:41:58.068Z,10.63
2022-09-22T05:44:03.145Z,12.68
2022-09-22T05:46:07.392Z,13.15
2022-09-22T05:48:12.176Z,13.52
2022-09-22T05:50:18.228Z,19.83
2022-09-22T05:52:24.256Z,13.98
2022-09-22T05:54:28.675Z,18.67
2022-09-22T05:56:33.125Z,16.00
2022-09-22T05:58:37.607Z,15.13
2022-09-22T06:00:42.903Z,12.27
2022-09-22T06:02:47.215Z,15.35
2022-09-22T06:04:51.971Z,9.60
2022-09-22T06:06:56.462Z,9.82
2022-09-22T06:09:02.528Z,11.38
2022-09-22T06:11:07.022Z,8.65
2022-09-22T06:13:13.021Z,8.00
2022-09-22T06:15:17.550Z,11.38
2022-09-22T06:17:22.707Z,10.75
2022-09-22T06:19:28.978Z,15.15
2022-09-22T06:21:33.709Z,12.82
2022-09-22T06:23:42.614Z,11.07
2022-09-22T06:25:48.837Z,10.37
2022-09-22T06:28:02.081Z,13.82
2022-09-22T06:30:11.255Z,11.52
2022-09-22T06:32:15.945Z,17.00
2022-09-22T06:34:20.249Z,9.82
2022-09-22T06:36:31.389Z,8.65
2022-09-22T06:38:36.114Z,11.32
2022-09-22T06:40:41.678Z,11.63
2022-09-22T06:42:51.227Z,8.07
2022-09-22T06:44:55.526Z,8.88
2022-09-22T06:47:05.431Z,12.07
2022-09-22T06:49:10.069Z,8.48
2022-09-22T06:51:14.428Z,7.47
2022-09-22T06:53:19.242Z,9.32
2022-09-22T06:55:23.811Z,7.53
2022-09-22T06:57:33.255Z,8.30
2022-09-22T06:59:39.152Z,6.78
2022-09-22T07:01:45.087Z,4.38
2022-09-22T07:03:49.600Z,6.00
2022-09-22T07:05:55.103Z,6.63
2022-09-22T07:07:59.446Z,5.68
2022-09-22T07:10:03.680Z,8.32
2022-09-22T07:12:08.433Z,4.55
2022-09-22T07:14:12.780Z,4.50
2022-09-22T07:16:19.693Z,6.78
2022-09-22T07:18:24.467Z,7.47
2022-09-22T07:20:29.101Z,10.07
2022-09-22T07:22:33.529Z,5.82
2022-09-22T07:24:37.874Z,7.85
2022-09-22T07:26:44.202Z,7.22
2022-09-22T07:28:50.487Z,5.03
2022-09-22T07:30:54.821Z,7.35
2022-09-22T07:33:01.918Z,12.00
2022-09-22T07:35:06.843Z,9.68
2022-09-22T07:37:15.608Z,7.80
2022-09-22T07:39:19.817Z,6.60
2022-09-22T07:41:27.612Z,6.93
2022-09-22T07:43:31.952Z,5.10
2022-09-22T07:45:35.220Z,9.05
2022-09-22T07:47:56.735Z,4.03
2022-09-22T07:50:04.264Z,5.40
2022-09-22T07:52:08.592Z,4.93
2022-09-22T07:54:13.056Z,2.78
2022-09-22T07:56:18.900Z,4.78
2022-09-22T07:58:23.254Z,9.57
2022-09-22T08:00:33.131Z,8.38
2022-09-22T08:02:38.258Z,10.45
2022-09-22T08:04:42.758Z,6.68
2022-09-22T08:06:50.472Z,11.10
2022-09-22T08:08:57.738Z,3.53
2022-09-22T08:11:06.480Z,4.40
2022-09-22T08:13:11.488Z,3.67
2022-09-22T08:15:15.672Z,2.97
2022-09-22T08:17:19.855Z,5.28
2022-09-22T08:19:24.917Z,4.03
2022-09-22T08:21:35.374Z,4.78
2022-09-22T08:23:41.836Z,3.72
2022-09-22T08:25:46.193Z,5.47
2022-09-22T08:27:50.334Z,6.05
2022-09-22T08:29:55.123Z,1.55
2022-09-22T08:31:59.207Z,6.97
2022-09-22T08:34:04.961Z,4.25
2022-09-22T08:36:11.832Z,5.15
2022-09-22T08:38:16.879Z,8.52
2022-09-22T08:40:24.105Z,3.53
2022-09-22T08:42:29.680Z,3.58
2022-09-22T08:44:40.810Z,5.80
2022-09-22T08:46:46.380Z,7.22
2022-09-22T08:49:09.158Z,4.10
2022-09-22T08:51:35.976Z,7.20
2022-09-22T08:53:47.949Z,2.78
2022-09-22T08:55:57.215Z,2.55
2022-09-22T08:58:08.047Z,3.15
2022-09-22T09:00:16.004Z,6.10
2022-09-22T09:02:46.975Z,3.92
2022-09-22T09:05:07.213Z,3.40
2022-09-22T09:07:19.787Z,7.38
2022-09-22T09:09:45.028Z,5.07
2022-09-22T09:12:21.904Z,4.20
2022-09-22T09:14:41.845Z,4.28
2022-09-22T09:16:50.484Z,3.03
2022-09-22T09:19:01.904Z,3.85
2022-09-22T09:21:11.378Z,3.63
2022-09-22T09:23:19.350Z,3.03
2022-09-22T09:25:32.368Z,6.18
2022-09-22T09:27:42.623Z,4.47
2022-09-22T09:29:57.344Z,2.72
2022-09-22T09:32:04.927Z,12.00
2022-09-22T09:34:14.513Z,7.22
2022-09-22T09:36:22.852Z,9.43
2022-09-22T09:38:29.567Z,9.70
2022-09-22T09:40:33.855Z,10.13
2022-09-22T09:42:39.687Z,2.92
2022-09-22T09:44:45.342Z,4.45
2022-09-22T09:46:59.380Z,6.95
2022-09-22T09:49:10.068Z,3.60
2022-09-22T09:51:14.885Z,3.53
2022-09-22T09:53:31.798Z,5.13
2022-09-22T09:55:36.012Z,2.15
2022-09-22T09:58:09.314Z,2.67
2022-09-22T10:00:32.246Z,7.43
2022-09-22T10:02:39.245Z,2.97
2022-09-22T10:04:51.992Z,4.32
2022-09-22T10:07:01.416Z,4.20
2022-09-22T10:09:06.352Z,2.65
2022-09-22T10:11:12.692Z,3.88
2022-09-22T10:13:31.504Z,4.82
2022-09-22T10:15:37.756Z,2.17
2022-09-22T10:17:45.099Z,2.60
2022-09-22T10:19:51.020Z,2.08
2022-09-22T10:22:17.516Z,5.97
2022-09-22T10:24:31.697Z,2.45
2022-09-22T10:26:36.541Z,3.60
2022-09-22T10:28:42.523Z,3.45
2022-09-22T10:31:00.450Z,2.80
2022-09-22T10:33:07.953Z,4.80
2022-09-22T10:35:28.179Z,2.58
2022-09-22T10:37:32.777Z,4.85
2022-09-22T10:39:49.238Z,4.07
2022-09-22T10:41:53.799Z,2.92
2022-09-22T10:44:15.519Z,3.17
2022-09-22T10:46:52.463Z,6.85
2022-09-22T10:49:04.793Z,4.72
2022-09-22T10:51:17.618Z,2.83
2022-09-22T10:54:00.057Z,6.32
2022-09-22T10:56:14.084Z,8.75
2022-09-22T10:58:28.610Z,5.32
2022-09-22T11:00:38.936Z,3.90
2022-09-22T11:03:20.462Z,6.20
2022-09-22T11:05:56.697Z,5.35
2022-09-22T11:08:24.432Z,5.28
2022-09-22T11:10:54.999Z,5.90
2022-09-22T11:13:11.817Z,4.38
2022-09-22T11:15:26.262Z,6.50
2022-09-22T11:17:46.712Z,4.78
2022-09-22T11:20:14.553Z,6.43
2022-09-22T11:22:48.856Z,6.72
2022-09-22T11:25:07.284Z,5.40
2022-09-22T11:27:17.373Z,4.97
2022-09-22T11:29:57.013Z,4.25
2022-09-22T11:32:15.993Z,8.40
2022-09-22T11:34:49.526Z,4.45
2022-09-22T11:36:58.931Z,3.80
2022-09-22T11:39:20.849Z,3.72
2022-09-22T11:41:31.635Z,4.28
2022-09-22T11:43:55.718Z,3.92
2022-09-22T11:46:11.921Z,5.32
2022-09-22T11:48:32.861Z,5.03
2022-09-22T11:51:11.585Z,4.63
2022-09-22T11:53:39.628Z,5.05
2022-09-22T11:55:50.419Z,3.25
2022-09-22T11:57:59.772Z,3.92
2022-09-22T12:00:07.285Z,3.28
2022-09-22T12:02:26.405Z,7.13
2022-09-22T12:04:37.771Z,6.85
2022-09-22T12:06:47.782Z,2.97
2022-09-22T12:11:04.447Z,2.72
2022-09-22T12:13:13.148Z,7.30
2022-09-22T12:15:23.674Z,3.28
2022-09-22T12:17:36.818Z,3.70
2022-09-22T12:19:51.235Z,2.63
2022-09-22T12:22:07.570Z,4.50
2022-09-22T12:24:13.539Z,4.13
2022-09-22T12:26:27.366Z,3.65
2022-09-22T12:28:38.134Z,7.03
2022-09-22T12:30:53.833Z,4.00
2022-09-22T12:32:58.025Z,3.63
2022-09-22T12:35:02.705Z,6.22
2022-09-22T12:37:14.564Z,5.65
2022-09-22T12:39:21.282Z,5.55
2022-09-22T12:41:25.411Z,6.40
2022-09-22T12:43:30.318Z,6.93
2022-09-22T12:45:37.158Z,3.70
2022-09-22T12:47:43.396Z,5.28
2022-09-22T12:49:52.653Z,6.35
2022-09-22T12:51:56.947Z,4.90
2022-09-22T12:54:47.000Z,9.77
2022-09-22T12:56:59.507Z,6.05
2022-09-22T12:59:03.802Z,6.20
2022-09-22T13:01:32.786Z,11.32
2022-09-22T13:03:51.988Z,5.40
2022-09-22T13:05:59.959Z,3.97
2022-09-22T13:08:04.803Z,10.35
2022-09-22T13:10:46.407Z,7.15
2022-09-22T13:13:20.865Z,5.15
2022-09-22T13:15:25.173Z,11.35
2022-09-22T13:17:41.471Z,2.85
2022-09-22T13:19:56.332Z,8.02
2022-09-22T13:22:17.867Z,6.47
2022-09-22T13:24:27.063Z,6.72
2022-09-22T13:26:34.557Z,12.57
2022-09-22T13:28:40.577Z,4.53
2022-09-22T13:30:46.687Z,4.03
2022-09-22T13:32:51.813Z,13.88
2022-09-22T13:34:55.910Z,6.22
2022-09-22T13:37:04.423Z,5.85
2022-09-22T13:39:11.540Z,5.15
2022-09-22T13:41:20.449Z,5.10
2022-09-22T13:43:33.184Z,7.18
2022-09-22T13:45:40.910Z,2.92
2022-09-22T13:47:45.777Z,6.60
2022-09-22T13:49:54.954Z,6.55
2022-09-22T13:52:02.834Z,3.50
2022-09-22T13:54:09.575Z,3.33
2022-09-22T13:56:21.635Z,3.50
2022-09-22T13:58:31.184Z,2.03
2022-09-22T14:01:01.732Z,4.33
2022-09-22T14:03:17.266Z,2.45
2022-09-22T14:05:25.001Z,3.50
2022-09-22T14:07:32.415Z,6.00
2022-09-22T14:09:39.746Z,6.72
2022-09-22T14:11:44.270Z,4.75
2022-09-22T14:13:59.531Z,4.22
2022-09-22T14:16:20.673Z,9.15
2022-09-22T14:18:28.030Z,8.25
2022-09-22T14:20:32.344Z,3.20
2022-09-22T14:22:43.326Z,4.72
2022-09-22T14:24:50.635Z,3.38
2022-09-22T14:27:00.209Z,8.02
2022-09-22T14:29:19.558Z,2.80
2022-09-22T14:31:29.251Z,6.75
2022-09-22T14:33:34.710Z,9.02
2022-09-22T14:35:38.921Z,4.85
2022-09-22T14:37:46.481Z,5.60
2022-09-22T14:39:53.618Z,3.97
2022-09-22T14:41:59.717Z,4.72
2022-09-22T14:44:26.549Z,7.07
2022-09-22T14:46:41.172Z,4.45
2022-09-22T14:48:45.754Z,2.80
2022-09-22T14:50:55.831Z,3.83
2022-09-22T14:53:06.798Z,5.80
2022-09-22T14:55:18.166Z,4.55
2022-09-22T14:57:22.697Z,5.47
2022-09-22T14:59:44.883Z,3.58
2022-09-22T15:02:08.693Z,4.05
2022-09-22T15:04:18.550Z,2.97
2022-09-22T15:06:22.870Z,2.95
2022-09-22T15:08:31.959Z,2.75
2022-09-22T15:10:37.077Z,2.80
2022-09-22T15:12:47.313Z,5.07
2022-09-22T15:15:00.472Z,4.10
2022-09-22T15:17:44.020Z,2.05
2022-09-22T15:19:51.495Z,4.72
2022-09-22T15:21:56.355Z,2.30
2022-09-22T15:24:01.809Z,4.18
2022-09-22T15:26:06.273Z,3.20
2022-09-22T15:28:13.838Z,4.63
2022-09-22T15:30:18.422Z,5.75
2022-09-22T15:32:24.277Z,7.25
2022-09-22T15:34:28.359Z,4.25
2022-09-22T15:36:33.778Z,4.25
2022-09-22T15:38:39.220Z,6.18
2022-09-22T15:40:43.367Z,16.58
2022-09-22T15:43:02.560Z,9.93
2022-09-22T15:45:14.447Z,5.68
2022-09-22T15:47:18.974Z,6.32
2022-09-22T15:49:27.094Z,7.43
2022-09-22T15:51:31.706Z,7.30
2022-09-22T15:53:37.824Z,7.07
2022-09-22T15:55:42.100Z,4.97
2022-09-22T15:57:48.836Z,7.18
2022-09-22T15:59:53.273Z,9.93
2022-09-22T16:02:01.343Z,13.82
2022-09-22T16:04:07.184Z,6.05
2022-09-22T16:06:15.931Z,7.35
2022-09-22T16:08:28.935Z,7.13
2022-09-22T16:10:36.530Z,7.38
2022-09-22T16:12:41.670Z,6.05
2022-09-22T16:14:45.752Z,12.32
2022-09-22T16:16:51.740Z,6.93
2022-09-22T16:18:56.211Z,9.95
2022-09-22T16:21:05.095Z,8.80
2022-09-22T16:23:11.101Z,10.57
2022-09-22T16:25:18.988Z,9.07
2022-09-22T16:27:23.181Z,5.60
2022-09-22T16:29:27.239Z,4.78
2022-09-22T16:31:31.808Z,9.45
2022-09-22T16:33:36.383Z,6.18
2022-09-22T16:35:40.684Z,14.60
2022-09-22T16:37:45.103Z,7.20
2022-09-22T16:39:50.631Z,11.93
2022-09-22T16:41:55.468Z,7.65
2022-09-22T16:44:00.097Z,13.60
2022-09-22T16:46:21.801Z,17.15
2022-09-22T16:48:26.026Z,7.35
2022-09-22T16:50:30.199Z,10.65
2022-09-22T16:52:34.450Z,9.32
2022-09-22T16:54:38.569Z,7.25
2022-09-22T16:56:46.084Z,13.73
2022-09-22T16:58:50.887Z,5.72
2022-09-22T17:00:55.154Z,6.10
2022-09-22T17:02:59.478Z,10.80
2022-09-22T17:05:03.632Z,9.10
2022-09-22T17:07:07.930Z,6.63
2022-09-22T17:09:13.213Z,5.93
2022-09-22T17:11:18.556Z,10.23
2022-09-22T17:13:26.765Z,10.50
2022-09-22T17:15:35.022Z,11.23
2022-09-22T17:17:39.675Z,5.03
2022-09-22T17:19:48.290Z,5.65
2022-09-22T17:21:55.498Z,5.15
2022-09-22T17:24:01.459Z,9.32
2022-09-22T17:26:07.516Z,10.57
2022-09-22T17:28:11.931Z,9.30
2022-09-22T17:30:17.713Z,9.30
2022-09-22T17:32:23.533Z,7.88
2022-09-22T17:34:29.572Z,4.05
2022-09-22T17:36:33.818Z,5.72
2022-09-22T17:38:40.218Z,1.98
2022-09-22T17:40:44.375Z,3.45
2022-09-22T17:42:48.889Z,5.68
2022-09-22T17:44:53.067Z,3.03
2022-09-22T17:47:16.053Z,4.13
2022-09-22T17:49:36.096Z,2.47
2022-09-22T17:51:59.546Z,4.05
2022-09-22T17:54:21.207Z,3.10
2022-09-22T17:56:25.481Z,3.97
2022-09-22T17:58:29.603Z,3.00
2022-09-22T18:00:33.996Z,3.15
2022-09-22T18:02:39.903Z,2.60
2022-09-22T18:04:45.941Z,3.03
2022-09-22T18:06:51.105Z,3.20
2022-09-22T18:09:02.247Z,4.07
2022-09-22T18:11:06.856Z,4.63
2022-09-22T18:13:10.960Z,3.75
2022-09-22T18:15:17.308Z,5.90
2022-09-22T18:17:23.916Z,4.97
2022-09-22T18:19:31.069Z,3.65
2022-09-22T18:21:35.420Z,3.42
2022-09-22T18:23:39.877Z,4.80
2022-09-22T18:25:44.322Z,2.50
2022-09-22T18:27:49.479Z,5.97
2022-09-22T18:29:58.551Z,2.83
2022-09-22T18:32:05.292Z,3.25
2022-09-22T18:34:10.665Z,5.00
2022-09-22T18:36:16.868Z,4.07
2022-09-22T18:38:21.373Z,2.97
2022-09-22T18:40:26.247Z,3.40
2022-09-22T18:42:32.793Z,5.35
2022-09-22T18:44:36.876Z,3.72
2022-09-22T18:46:41.065Z,4.75
2022-09-22T18:48:45.974Z,3.88
2022-09-22T18:50:54.550Z,5.95
2022-09-22T18:53:00.136Z,2.97
2022-09-22T18:55:09.449Z,7.13
2022-09-22T18:57:13.600Z,4.45
2022-09-22T18:59:19.898Z,3.38
2022-09-22T19:01:24.294Z,4.43
2022-09-22T19:03:28.527Z,4.53
2022-09-22T19:05:32.718Z,7.13
2022-09-22T19:07:42.416Z,4.10
2022-09-22T19:09:49.505Z,8.80
2022-09-22T19:11:54.101Z,4.97
2022-09-22T19:13:58.325Z,4.65
2022-09-22T19:16:04.164Z,3.92
2022-09-22T19:18:09.998Z,9.23
2022-09-22T19:20:15.766Z,8.13
2022-09-22T19:22:22.818Z,11.10
2022-09-22T19:24:27.019Z,7.03
2022-09-22T19:26:32.944Z,7.35
2022-09-22T19:28:37.089Z,8.57
2022-09-22T19:30:41.541Z,6.07
2022-09-22T19:32:46.397Z,7.18
2022-09-22T19:34:53.745Z,4.32
2022-09-22T19:36:58.361Z,4.10
2022-09-22T19:39:02.602Z,4.40
2022-09-22T19:41:06.796Z,4.75
2022-09-22T19:43:12.338Z,4.40
2022-09-22T19:45:16.817Z,6.07
2022-09-22T19:47:21.141Z,4.78
2022-09-22T19:49:25.693Z,4.13
2022-09-22T19:51:30.044Z,3.90
2022-09-22T19:53:34.290Z,7.05
2022-09-22T19:55:38.541Z,5.07
2022-09-22T19:57:42.821Z,8.02
2022-09-22T19:59:48.391Z,4.22
2022-09-22T20:01:53.038Z,3.97
2022-09-22T20:03:57.704Z,6.80
2022-09-22T20:06:02.112Z,7.60
2022-09-22T20:08:07.815Z,5.30
2022-09-22T20:10:13.299Z,4.53
2022-09-22T20:12:17.511Z,4.35
2022-09-22T20:14:20.655Z,4.07
2022-09-22T20:16:28.149Z,4.07
2022-09-22T20:18:33.393Z,9.13
2022-09-22T20:20:37.549Z,5.03
2022-09-22T20:22:42.225Z,7.45
2022-09-22T20:24:50.325Z,3.55
2022-09-22T20:26:54.456Z,5.30
2022-09-22T20:28:59.194Z,5.03
2022-09-22T20:31:03.391Z,5.57
2022-09-22T20:33:18.259Z,5.43
2022-09-22T20:35:22.797Z,5.07
2022-09-22T20:37:27.285Z,6.70
2022-09-22T20:39:32.680Z,5.53
2022-09-22T20:41:38.620Z,4.70
2022-09-22T20:43:42.690Z,4.65
2022-09-22T20:45:46.935Z,4.15
2022-09-22T20:47:51.085Z,6.28
2022-09-22T20:49:57.149Z,5.22
2022-09-22T20:52:01.961Z,4.03
2022-09-22T20:54:06.921Z,5.60
2022-09-22T20:56:14.029Z,2.60
2022-09-22T20:58:18.139Z,5.22
2022-09-22T21:00:22.315Z,4.70
2022-09-22T21:02:27.706Z,5.63
2022-09-22T21:04:32.139Z,3.42
2022-09-22T21:06:37.636Z,4.35
2022-09-22T21:09:00.544Z,3.00
2022-09-22T21:11:04.843Z,4.78
2022-09-22T21:13:12.513Z,4.05
2022-09-22T21:15:16.646Z,6.75
2022-09-22T21:17:21.341Z,4.82
2022-09-22T21:19:25.555Z,4.07
2022-09-22T21:21:31.308Z,5.07
2022-09-22T21:23:37.343Z,6.28
2022-09-22T21:25:41.491Z,4.38
2022-09-22T21:27:45.665Z,3.40
2022-09-22T21:29:50.243Z,2.97
2022-09-22T21:31:56.253Z,5.68
2022-09-22T21:34:00.460Z,5.78
2022-09-22T21:36:08.660Z,6.75
2022-09-22T21:38:12.821Z,5.45
2022-09-22T21:40:19.020Z,5.47
2022-09-22T21:42:23.217Z,4.18
2022-09-22T21:44:27.331Z,5.20
2022-09-22T21:46:31.957Z,5.85
2022-09-22T21:48:37.255Z,5.82
2022-09-22T21:50:41.503Z,7.40
2022-09-22T21:52:46.000Z,4.35
2022-09-22T21:54:51.438Z,5.50
2022-09-22T21:56:57.561Z,6.47
2022-09-22T21:59:03.457Z,6.50
2022-09-22T22:01:08.926Z,5.78
2022-09-22T22:03:30.623Z,5.30
2022-09-22T22:05:35.092Z,6.10
2022-09-22T22:07:39.181Z,8.23
2022-09-22T22:09:43.409Z,8.00
2022-09-22T22:11:49.456Z,3.75
2022-09-22T22:13:57.099Z,5.68
2022-09-22T22:16:02.115Z,5.53
2022-09-22T22:18:10.304Z,8.57
2022-09-22T22:20:14.623Z,4.82
2022-09-22T22:22:18.802Z,5.53
2022-09-22T22:24:29.508Z,10.98
2022-09-22T22:26:33.684Z,9.85
2022-09-22T22:28:37.943Z,5.38
2022-09-22T22:30:43.947Z,4.57
2022-09-22T22:32:48.117Z,4.40
2022-09-22T22:34:52.297Z,7.90
2022-09-22T22:36:58.081Z,6.20
2022-09-22T22:39:02.458Z,7.00
2022-09-22T22:41:10.057Z,6.00
2022-09-22T22:43:14.685Z,8.88
2022-09-22T22:45:19.000Z,4.90
2022-09-22T22:47:25.684Z,5.05
2022-09-22T22:49:29.893Z,6.97
2022-09-22T22:51:35.630Z,6.95
2022-09-22T22:53:39.955Z,9.02
2022-09-22T22:55:57.969Z,8.60
2022-09-22T22:58:02.489Z,7.40
2022-09-22T23:00:08.855Z,5.10
2022-09-22T23:02:13.002Z,6.82
2022-09-22T23:04:18.672Z,5.43
2022-09-22T23:06:25.250Z,5.45
2022-09-22T23:08:29.858Z,4.05
2022-09-22T23:10:35.414Z,4.15
2022-09-22T23:12:40.366Z,5.38
2022-09-22T23:14:44.648Z,5.18
2022-09-22T23:16:49.612Z,3.40
2022-09-22T23:18:54.370Z,5.55
2022-09-22T23:20:59.855Z,6.45
2022-09-22T23:23:04.070Z,4.43
2022-09-22T23:25:09.813Z,3.35
2022-09-22T23:27:15.102Z,9.02
2022-09-22T23:29:19.186Z,5.40
2022-09-22T23:31:23.452Z,4.78
2022-09-22T23:33:27.850Z,3.17
2022-09-22T23:35:32.014Z,3.67
2022-09-22T23:37:37.760Z,3.17
2022-09-22T23:39:42.028Z,5.18
2022-09-22T23:41:47.170Z,4.80
2022-09-22T23:43:51.752Z,5.45
2022-09-22T23:45:56.871Z,4.35
2022-09-22T23:48:01.023Z,2.92
2022-09-22T23:50:05.442Z,5.97
2022-09-22T23:52:09.630Z,7.07
2022-09-22T23:54:15.363Z,8.15
2022-09-22T23:56:20.047Z,5.55
2022-09-22T23:58:24.354Z,6.00
